createdAt,value
2023-04-09T00:01:11.329Z,18.86
2023-04-09T00:06:13.722Z,18.86
2023-04-09T00:11:15.987Z,18.85
2023-04-09T00:16:18.061Z,18.84
2023-04-09T00:21:21.097Z,18.88
2023-04-09T00:26:23.204Z,18.86
2023-04-09T00:31:25.305Z,18.84
2023-04-09T00:36:27.252Z,18.86
2023-04-09T00:41:29.320Z,18.85
2023-04-09T00:46:32.898Z,18.83
2023-04-09T00:51:36.204Z,18.85
2023-04-09T00:56:38.841Z,18.83
2023-04-09T01:01:40.910Z,18.85
2023-04-09T01:06:49.895Z,18.82
2023-04-09T01:12:00.338Z,18.80
2023-04-09T01:17:19.398Z,18.78
2023-04-09T01:23:01.441Z,18.78
2023-04-09T01:28:19.888Z,18.85
2023-04-09T01:33:23.803Z,18.86
2023-04-09T01:38:27.111Z,18.81
2023-04-09T01:43:30.879Z,18.78
2023-04-09T01:48:34.553Z,18.85
2023-04-09T01:53:36.924Z,18.81
2023-04-09T01:58:39.155Z,18.84
2023-04-09T02:03:48.229Z,18.82
2023-04-09T02:08:54.238Z,18.83
2023-04-09T02:13:58.659Z,18.85
2023-04-09T02:19:03.881Z,18.83
2023-04-09T02:24:06.395Z,18.81
2023-04-09T02:29:08.286Z,18.82
2023-04-09T02:34:10.545Z,18.83
2023-04-09T02:39:12.471Z,18.82
2023-04-09T02:44:14.640Z,18.85
2023-04-09T02:49:16.999Z,18.82
2023-04-09T02:54:19.311Z,18.80
2023-04-09T02:59:21.221Z,18.77
2023-04-09T03:04:23.353Z,18.81
2023-04-09T03:09:25.564Z,18.82
2023-04-09T03:14:27.496Z,18.81
2023-04-09T03:19:31.381Z,18.82
2023-04-09T03:24:33.897Z,18.83
2023-04-09T03:29:35.942Z,18.82
2023-04-09T03:34:38.172Z,18.82
2023-04-09T03:39:40.287Z,18.83
2023-04-09T03:44:42.039Z,18.79
2023-04-09T03:49:43.964Z,18.83
2023-04-09T03:54:46.015Z,18.83
2023-04-09T03:59:48.852Z,18.84
2023-04-09T04:04:51.256Z,18.77
2023-04-09T04:09:53.404Z,18.78
2023-04-09T04:14:55.611Z,18.76
2023-04-09T04:19:57.655Z,18.85
2023-04-09T04:24:59.684Z,18.79
2023-04-09T04:30:02.546Z,18.81
2023-04-09T04:35:04.771Z,18.79
2023-04-09T04:40:08.495Z,18.80
2023-04-09T04:45:10.671Z,18.82
2023-04-09T04:50:12.741Z,18.81
2023-04-09T04:55:14.753Z,18.80
2023-04-09T05:00:16.730Z,18.79
2023-04-09T05:05:18.680Z,18.82
2023-04-09T05:10:21.116Z,18.84
2023-04-09T05:15:23.030Z,18.80
2023-04-09T05:20:25.155Z,18.77
2023-04-09T05:25:27.127Z,18.76
2023-04-09T05:30:29.253Z,18.78
2023-04-09T05:35:31.496Z,18.80
2023-04-09T05:40:33.528Z,18.81
2023-04-09T05:45:36.516Z,18.80
2023-04-09T05:50:53.506Z,18.81
2023-04-09T05:55:56.792Z,18.79
2023-04-09T06:00:58.921Z,18.78
2023-04-09T06:06:01.242Z,18.79
2023-04-09T06:11:04.085Z,18.78
2023-04-09T06:16:07.624Z,18.80
2023-04-09T06:21:10.049Z,18.82
2023-04-09T06:26:12.235Z,18.76
2023-04-09T06:31:14.173Z,18.76
2023-04-09T06:36:16.439Z,18.76
2023-04-09T06:41:21.570Z,18.77
2023-04-09T06:46:24.030Z,18.74
2023-04-09T06:51:26.071Z,18.76
2023-04-09T06:56:28.023Z,18.71
2023-04-09T07:01:30.237Z,18.75
2023-04-09T07:06:32.545Z,18.73
2023-04-09T07:11:34.593Z,18.75
2023-04-09T07:16:37.028Z,18.75
2023-04-09T07:21:39.212Z,18.81
2023-04-09T07:26:41.768Z,18.79
2023-04-09T07:31:45.273Z,18.77
2023-04-09T07:36:47.288Z,19.03
2023-04-09T07:41:49.482Z,19.35
2023-04-09T07:46:51.668Z,19.45
2023-04-09T07:51:54.132Z,19.52
2023-04-09T07:56:56.970Z,19.60
2023-04-09T08:01:59.719Z,19.48
2023-04-09T08:07:01.773Z,19.45
2023-04-09T08:12:04.126Z,19.62
2023-04-09T08:17:06.495Z,19.52
2023-04-09T08:22:08.386Z,19.47
2023-04-09T08:27:10.320Z,19.51
2023-04-09T08:32:12.979Z,19.45
2023-04-09T08:37:14.987Z,19.39
2023-04-09T08:42:17.013Z,19.33
2023-04-09T08:47:20.882Z,19.29
2023-04-09T08:52:32.683Z,19.41
2023-04-09T08:57:41.481Z,19.53
2023-04-09T09:03:07.351Z,19.46
2023-04-09T09:08:10.831Z,19.44
2023-04-09T09:13:23.817Z,19.46
2023-04-09T09:18:42.977Z,19.47
2023-04-09T09:23:45.691Z,19.52
2023-04-09T09:28:49.173Z,19.53
2023-04-09T09:33:51.558Z,19.49
2023-04-09T09:38:55.855Z,19.21
2023-04-09T09:43:58.022Z,19.03
2023-04-09T09:49:00.196Z,18.98
2023-04-09T09:54:03.411Z,19.00
2023-04-09T09:59:17.238Z,19.02
2023-04-09T10:04:21.555Z,19.40
2023-04-09T10:09:24.255Z,19.33
2023-04-09T10:14:29.142Z,19.41
2023-04-09T10:19:47.559Z,19.41
2023-04-09T10:24:51.577Z,19.40
2023-04-09T10:29:53.536Z,19.43
2023-04-09T10:34:59.728Z,19.41
2023-04-09T10:40:04.215Z,19.33
2023-04-09T10:45:07.818Z,19.43
2023-04-09T10:50:22.202Z,19.36
2023-04-09T10:55:55.575Z,19.28
2023-04-09T11:01:02.017Z,19.30
2023-04-09T11:06:07.633Z,19.27
2023-04-09T11:11:09.959Z,19.24
2023-04-09T11:16:12.777Z,19.31
2023-04-09T11:21:32.225Z,19.07
2023-04-09T11:26:37.648Z,19.11
2023-04-09T11:31:39.823Z,19.12
2023-04-09T11:36:41.959Z,19.13
2023-04-09T11:41:44.001Z,19.13
2023-04-09T11:46:46.624Z,19.04
2023-04-09T11:51:48.687Z,19.04
2023-04-09T11:56:56.347Z,19.11
2023-04-09T12:01:59.037Z,19.04
2023-04-09T12:07:08.926Z,18.94
2023-04-09T12:12:11.825Z,18.95
2023-04-09T12:17:13.868Z,19.29
2023-04-09T12:22:15.763Z,19.25
2023-04-09T12:27:17.678Z,19.03
2023-04-09T12:32:19.902Z,19.24
2023-04-09T12:37:23.014Z,19.35
2023-04-09T12:42:24.893Z,19.36
2023-04-09T12:47:27.959Z,19.38
2023-04-09T12:52:30.024Z,19.33
2023-04-09T12:57:32.302Z,19.36
2023-04-09T13:02:35.011Z,19.35
2023-04-09T13:07:37.213Z,19.37
2023-04-09T13:12:39.258Z,19.35
2023-04-09T13:17:41.527Z,19.39
2023-04-09T13:22:47.308Z,19.37
2023-04-09T13:27:49.383Z,19.37
2023-04-09T13:32:51.682Z,19.39
2023-04-09T13:37:53.725Z,19.38
2023-04-09T13:42:55.704Z,19.36
2023-04-09T13:47:58.080Z,19.35
2023-04-09T13:53:03.132Z,19.37
2023-04-09T13:58:05.014Z,19.40
2023-04-09T14:03:07.378Z,19.37
2023-04-09T14:08:09.418Z,19.30
2023-04-09T14:13:12.633Z,19.29
2023-04-09T14:18:14.749Z,19.32
2023-04-09T14:23:16.812Z,19.33
2023-04-09T14:28:19.054Z,19.34
2023-04-09T14:33:20.940Z,19.34
2023-04-09T14:38:24.635Z,19.38
2023-04-09T14:43:26.704Z,19.35
2023-04-09T14:48:28.506Z,19.37
2023-04-09T14:53:30.541Z,19.35
2023-04-09T14:58:32.560Z,19.36
2023-04-09T15:03:34.955Z,19.36
2023-04-09T15:08:37.299Z,19.38
2023-04-09T15:13:39.372Z,19.40
2023-04-09T15:18:41.460Z,19.39
2023-04-09T15:23:43.448Z,19.37
2023-04-09T15:28:46.462Z,19.39
2023-04-09T15:33:50.774Z,19.37
2023-04-09T15:38:56.184Z,19.37
2023-04-09T15:43:58.875Z,19.32
2023-04-09T15:49:00.916Z,19.29
2023-04-09T15:54:02.906Z,19.12
2023-04-09T15:59:05.658Z,18.93
2023-04-09T16:04:09.375Z,19.23
2023-04-09T16:09:11.735Z,19.44
2023-04-09T16:14:14.037Z,19.46
2023-04-09T16:19:18.203Z,19.46
2023-04-09T16:24:20.259Z,19.49
2023-04-09T16:29:22.291Z,19.41
2023-04-09T16:34:24.242Z,19.44
2023-04-09T16:39:26.455Z,19.45
2023-04-09T16:44:28.708Z,19.42
2023-04-09T16:49:31.991Z,19.44
2023-04-09T16:54:34.034Z,19.42
2023-04-09T16:59:35.915Z,19.40
2023-04-09T17:04:38.437Z,19.43
2023-04-09T17:09:40.529Z,19.47
2023-04-09T17:14:43.384Z,19.50
2023-04-09T17:19:45.304Z,19.45
2023-04-09T17:24:47.403Z,19.48
2023-04-09T17:29:49.666Z,19.46
2023-04-09T17:34:52.767Z,19.46
2023-04-09T17:39:55.479Z,19.42
2023-04-09T17:44:57.677Z,19.39
2023-04-09T17:50:00.598Z,19.39
2023-04-09T17:55:09.071Z,19.39
2023-04-09T18:00:11.819Z,19.37
2023-04-09T18:05:13.983Z,19.37
2023-04-09T18:10:16.259Z,19.31
2023-04-09T18:15:19.310Z,19.31
2023-04-09T18:20:21.317Z,19.30
2023-04-09T18:25:23.582Z,19.27
2023-04-09T18:30:26.675Z,19.39
2023-04-09T18:35:28.874Z,19.36
2023-04-09T18:40:30.952Z,19.33
2023-04-09T18:45:32.929Z,19.33
2023-04-09T18:50:35.308Z,19.28
2023-04-09T18:55:38.449Z,19.29
2023-04-09T19:00:40.452Z,19.29
2023-04-09T19:05:42.727Z,19.28
2023-04-09T19:10:45.187Z,19.29
2023-04-09T19:15:47.393Z,19.29
2023-04-09T19:20:49.855Z,19.29
2023-04-09T19:25:53.653Z,19.28
2023-04-09T19:30:55.462Z,19.24
2023-04-09T19:35:57.628Z,19.24
2023-04-09T19:40:59.872Z,19.23
2023-04-09T19:46:08.979Z,19.23
2023-04-09T19:51:20.846Z,19.19
2023-04-09T19:56:22.851Z,19.27
2023-04-09T20:01:24.977Z,19.21
2023-04-09T20:06:27.645Z,19.21
2023-04-09T20:11:29.683Z,19.20
2023-04-09T20:16:31.903Z,19.20
2023-04-09T20:21:34.581Z,19.19
2023-04-09T20:26:36.805Z,19.19
2023-04-09T20:31:38.924Z,19.20
2023-04-09T20:36:44.038Z,19.20
2023-04-09T20:41:46.345Z,19.19
2023-04-09T20:46:48.386Z,19.18
2023-04-09T20:51:50.566Z,19.16
2023-04-09T20:56:52.610Z,19.19
2023-04-09T21:01:56.304Z,19.21
2023-04-09T21:06:58.710Z,19.21
2023-04-09T21:12:03.320Z,19.23
2023-04-09T21:17:05.964Z,19.34
2023-04-09T21:22:08.085Z,19.22
2023-04-09T21:27:09.999Z,19.21
2023-04-09T21:32:12.293Z,19.19
2023-04-09T21:37:14.354Z,19.23
2023-04-09T21:42:16.444Z,19.20
2023-04-09T21:47:19.027Z,19.21
2023-04-09T21:52:21.268Z,19.21
2023-04-09T21:57:23.554Z,19.18
2023-04-09T22:02:25.769Z,19.19
2023-04-09T22:07:27.951Z,19.22
2023-04-09T22:12:30.103Z,19.17
2023-04-09T22:17:32.093Z,19.18
2023-04-09T22:22:34.204Z,19.14
2023-04-09T22:27:36.683Z,19.21
2023-04-09T22:32:38.692Z,19.13
2023-04-09T22:37:40.835Z,19.19
2023-04-09T22:42:43.699Z,19.15
2023-04-09T22:47:45.586Z,19.15
2023-04-09T22:52:47.585Z,19.18
2023-04-09T22:57:49.756Z,19.17
2023-04-09T23:02:51.965Z,19.18
2023-04-09T23:07:54.101Z,19.20
2023-04-09T23:12:56.156Z,19.17
2023-04-09T23:17:58.313Z,19.18
2023-04-09T23:23:00.610Z,19.19
2023-04-09T23:28:02.569Z,19.16
2023-04-09T23:33:04.828Z,19.18
2023-04-09T23:38:06.821Z,19.19
2023-04-09T23:43:08.754Z,19.15
2023-04-09T23:48:12.754Z,19.18
2023-04-09T23:53:14.828Z,19.17
2023-04-09T23:58:17.996Z,19.15
